createdAt,value
2018-06-09T00:01:33.353Z,35.27
2018-06-09T00:04:01.460Z,36.33
2018-06-09T00:06:35.492Z,34.73
2018-06-09T00:09:05.342Z,33.53
2018-06-09T00:11:33.594Z,34.43
2018-06-09T00:14:02.003Z,34.20
2018-06-09T00:16:30.378Z,36.00
2018-06-09T00:18:58.486Z,35.00
2018-06-09T00:21:26.838Z,35.10
2018-06-09T00:23:55.188Z,34.90
2018-06-09T00:26:23.552Z,35.57
2018-06-09T00:28:51.996Z,35.23
2018-06-09T00:31:20.387Z,34.47
2018-06-09T00:33:48.802Z,37.50
2018-06-09T00:36:17.306Z,38.27
2018-06-09T00:38:45.403Z,40.87
2018-06-09T00:41:13.791Z,41.40
2018-06-09T00:43:42.180Z,40.63
2018-06-09T00:46:10.533Z,39.07
2018-06-09T00:48:38.935Z,42.03
2018-06-09T00:51:07.332Z,41.53
2018-06-09T00:53:35.705Z,42.70
2018-06-09T00:56:15.469Z,42.90
2018-06-09T00:58:43.939Z,43.43
2018-06-09T01:01:12.289Z,45.97
2018-06-09T01:03:40.674Z,46.23
2018-06-09T01:06:09.090Z,42.53
2018-06-09T01:08:37.487Z,45.83
2018-06-09T01:11:05.879Z,42.77
2018-06-09T01:13:34.272Z,43.93
2018-06-09T01:16:02.671Z,46.27
2018-06-09T01:18:31.045Z,53.67
2018-06-09T01:20:59.493Z,46.33
2018-06-09T01:23:27.839Z,47.67
2018-06-09T01:25:56.203Z,43.07
2018-06-09T01:28:24.564Z,47.30
2018-06-09T01:30:53.795Z,46.97
2018-06-09T01:33:22.131Z,51.13
2018-06-09T01:35:50.541Z,53.03
2018-06-09T01:38:18.896Z,52.87
2018-06-09T01:40:47.389Z,50.03
2018-06-09T01:43:15.759Z,48.27
2018-06-09T01:45:44.090Z,49.67
2018-06-09T01:48:12.486Z,52.27
2018-06-09T01:50:40.889Z,50.37
2018-06-09T01:53:09.291Z,51.03
2018-06-09T01:55:37.608Z,45.43
2018-06-09T01:58:05.700Z,44.03
2018-06-09T02:00:34.077Z,48.83
2018-06-09T02:03:02.487Z,53.03
2018-06-09T02:05:30.826Z,47.23
2018-06-09T02:07:59.260Z,45.97
2018-06-09T02:10:27.666Z,48.80
2018-06-09T02:12:56.062Z,56.67
2018-06-09T02:15:24.436Z,53.27
2018-06-09T02:17:52.789Z,47.20
2018-06-09T02:20:21.171Z,48.20
2018-06-09T02:22:49.546Z,49.90
2018-06-09T02:25:17.922Z,47.77
2018-06-09T02:27:46.316Z,49.70
2018-06-09T02:30:14.680Z,52.13
2018-06-09T02:32:43.087Z,50.70
2018-06-09T02:35:11.460Z,51.37
2018-06-09T02:37:39.836Z,62.87
2018-06-09T02:40:08.204Z,56.60
2018-06-09T02:42:36.566Z,57.00
2018-06-09T02:45:05.044Z,56.73
2018-06-09T02:47:33.410Z,55.97
2018-06-09T02:50:01.768Z,55.43
2018-06-09T02:52:30.162Z,54.83
2018-06-09T02:54:58.531Z,54.47
2018-06-09T02:57:26.877Z,52.13
2018-06-09T02:59:54.962Z,64.10
2018-06-09T03:02:23.327Z,56.50
2018-06-09T03:04:51.404Z,47.30
2018-06-09T03:07:19.778Z,52.77
2018-06-09T03:09:49.010Z,56.17
2018-06-09T03:12:17.382Z,59.63
2018-06-09T03:14:45.782Z,58.50
2018-06-09T03:17:14.160Z,55.80
2018-06-09T03:19:42.592Z,52.03
2018-06-09T03:22:10.720Z,59.20
2018-06-09T03:24:39.106Z,61.33
2018-06-09T03:27:07.444Z,58.63
2018-06-09T03:29:36.066Z,55.50
2018-06-09T03:32:04.438Z,63.00
2018-06-09T03:34:32.782Z,57.10
2018-06-09T03:37:00.874Z,60.73
2018-06-09T03:39:29.224Z,56.97
2018-06-09T03:41:57.618Z,53.93
2018-06-09T03:44:25.971Z,57.30
2018-06-09T03:46:54.068Z,54.57
2018-06-09T03:49:22.416Z,51.40
2018-06-09T03:51:50.818Z,54.73
2018-06-09T03:54:19.212Z,52.57
2018-06-09T03:56:47.581Z,54.10
2018-06-09T03:59:15.963Z,51.50
2018-06-09T04:01:44.344Z,54.43
2018-06-09T04:04:12.729Z,54.63
2018-06-09T04:06:41.827Z,49.03
2018-06-09T04:09:11.016Z,51.53
2018-06-09T04:11:39.444Z,51.10
2018-06-09T04:14:07.772Z,47.53
2018-06-09T04:16:36.209Z,44.17
2018-06-09T04:19:04.637Z,47.60
2018-06-09T04:21:32.969Z,45.80
2018-06-09T04:24:01.373Z,47.37
2018-06-09T04:26:29.454Z,51.97
2018-06-09T04:28:57.883Z,49.67
2018-06-09T04:31:26.262Z,53.37
2018-06-09T04:33:54.658Z,56.07
2018-06-09T04:36:22.997Z,66.73
2018-06-09T04:38:51.359Z,68.50
2018-06-09T04:41:19.782Z,58.77
2018-06-09T04:43:48.137Z,62.27
2018-06-09T04:46:16.485Z,63.40
2018-06-09T04:48:44.985Z,72.70
2018-06-09T04:51:13.387Z,68.37
2018-06-09T04:53:41.737Z,61.07
2018-06-09T04:56:10.097Z,61.13
2018-06-09T04:58:38.453Z,59.30
2018-06-09T05:01:06.863Z,58.50
2018-06-09T05:03:35.222Z,42.53
2018-06-09T05:06:03.339Z,42.30
2018-06-09T05:08:31.725Z,39.70
2018-06-09T05:11:00.089Z,39.50
2018-06-09T05:13:28.425Z,39.13
2018-06-09T05:15:56.527Z,37.77
2018-06-09T05:18:24.929Z,36.63
2018-06-09T05:20:53.313Z,41.50
2018-06-09T05:23:21.678Z,39.97
2018-06-09T05:25:50.058Z,40.03
2018-06-09T05:28:18.407Z,44.20
2018-06-09T05:30:46.831Z,44.17
2018-06-09T05:33:15.257Z,44.40
2018-06-09T05:35:43.601Z,43.07
2018-06-09T05:38:11.961Z,44.47
2018-06-09T05:40:40.383Z,42.10
2018-06-09T05:43:08.784Z,54.17
2018-06-09T05:45:37.251Z,52.67
2018-06-09T05:48:05.651Z,49.97
2018-06-09T05:50:33.992Z,49.77
2018-06-09T05:53:02.413Z,50.90
2018-06-09T05:55:30.792Z,50.20
2018-06-09T05:57:59.222Z,46.23
2018-06-09T06:00:27.595Z,47.87
2018-06-09T06:02:56.016Z,47.40
2018-06-09T06:05:24.446Z,42.70
2018-06-09T06:07:52.837Z,48.03
2018-06-09T06:10:21.195Z,47.35
2018-06-09T06:12:49.606Z,45.05
2018-06-09T06:15:17.973Z,47.33
2018-06-09T06:17:46.540Z,49.20
2018-06-09T06:20:14.968Z,49.42
2018-06-09T06:22:43.358Z,43.78
2018-06-09T06:25:11.928Z,43.48
2018-06-09T06:27:40.017Z,40.28
2018-06-09T06:30:08.442Z,38.42
2018-06-09T06:32:36.826Z,42.80
2018-06-09T06:35:05.316Z,45.98
2018-06-09T06:37:33.704Z,44.93
2018-06-09T06:40:02.203Z,39.88
2018-06-09T06:42:30.662Z,43.65
2018-06-09T06:44:59.147Z,42.40
2018-06-09T06:47:27.522Z,40.35
2018-06-09T06:49:56.160Z,37.80
2018-06-09T06:52:24.515Z,40.35
2018-06-09T06:54:53.491Z,36.90
2018-06-09T06:57:21.903Z,35.45
2018-06-09T06:59:51.227Z,35.50
2018-06-09T07:02:19.630Z,35.40
2018-06-09T07:04:48.076Z,36.00
2018-06-09T07:07:16.539Z,29.23
2018-06-09T07:09:44.952Z,32.63
2018-06-09T07:12:13.353Z,31.27
2018-06-09T07:14:41.738Z,33.38
2018-06-09T07:17:10.088Z,29.07
2018-06-09T07:19:40.702Z,31.68
2018-06-09T07:22:09.204Z,32.15
2018-06-09T07:24:37.563Z,31.25
2018-06-09T07:27:05.953Z,29.87
2018-06-09T07:29:34.423Z,28.42
2018-06-09T07:32:03.122Z,28.75
2018-06-09T07:34:31.558Z,29.65
2018-06-09T07:36:59.976Z,26.95
2018-06-09T07:39:28.343Z,28.62
2018-06-09T07:41:56.791Z,26.12
2018-06-09T07:44:25.220Z,26.05
2018-06-09T07:46:53.637Z,22.75
2018-06-09T07:49:22.023Z,26.68
2018-06-09T07:51:50.462Z,27.67
2018-06-09T07:54:18.861Z,25.52
2018-06-09T07:56:47.241Z,28.57
2018-06-09T07:59:15.646Z,25.45
2018-06-09T08:01:44.041Z,30.48
2018-06-09T08:04:12.538Z,30.97
2018-06-09T08:06:40.892Z,31.95
2018-06-09T08:09:09.266Z,30.25
2018-06-09T08:11:37.662Z,32.53
2018-06-09T08:14:06.085Z,31.60
2018-06-09T08:16:34.554Z,27.93
2018-06-09T08:19:03.062Z,29.92
2018-06-09T08:21:31.494Z,27.87
2018-06-09T08:23:59.932Z,28.23
2018-06-09T08:26:28.316Z,27.27
2018-06-09T08:28:56.701Z,23.65
2018-06-09T08:31:25.069Z,22.65
2018-06-09T08:33:53.491Z,20.05
2018-06-09T08:36:22.022Z,23.30
2018-06-09T08:38:50.476Z,20.77
2018-06-09T08:41:18.905Z,21.37
2018-06-09T08:43:46.984Z,20.82
2018-06-09T08:46:15.374Z,20.60
2018-06-09T08:48:43.716Z,19.77
2018-06-09T08:51:12.104Z,20.27
2018-06-09T08:53:40.209Z,20.35
2018-06-09T08:56:08.617Z,18.48
2018-06-09T08:58:37.050Z,20.90
2018-06-09T09:01:05.464Z,19.17
2018-06-09T09:03:33.872Z,20.05
2018-06-09T09:06:02.240Z,20.90
2018-06-09T09:08:30.657Z,19.85
2018-06-09T09:10:59.752Z,18.57
2018-06-09T09:13:28.206Z,18.20
2018-06-09T09:15:56.567Z,18.00
2018-06-09T09:18:24.966Z,20.43
2018-06-09T09:20:53.357Z,19.85
2018-06-09T09:23:21.761Z,22.22
2018-06-09T09:25:50.201Z,17.92
2018-06-09T09:28:18.580Z,18.65
2018-06-09T09:30:47.084Z,19.02
2018-06-09T09:33:15.535Z,17.82
2018-06-09T09:35:43.912Z,18.27
2018-06-09T09:38:12.375Z,18.42
2018-06-09T09:40:40.758Z,18.30
2018-06-09T09:43:10.314Z,15.03
2018-06-09T09:45:38.776Z,17.67
2018-06-09T09:48:07.165Z,15.90
2018-06-09T09:50:35.608Z,16.35
2018-06-09T09:53:04.187Z,17.35
2018-06-09T09:55:32.612Z,17.87
2018-06-09T09:58:02.281Z,20.12
2018-06-09T10:00:35.961Z,18.15
2018-06-09T10:03:04.395Z,18.60
2018-06-09T10:05:32.868Z,19.92
2018-06-09T10:08:01.226Z,15.10
2018-06-09T10:10:29.662Z,17.62
2018-06-09T10:12:58.070Z,17.07
2018-06-09T10:15:26.496Z,18.45
2018-06-09T10:17:54.868Z,19.15
2018-06-09T10:20:23.323Z,20.55
2018-06-09T10:22:51.727Z,18.48
2018-06-09T10:25:20.190Z,18.05
2018-06-09T10:27:48.592Z,17.82
2018-06-09T10:30:16.986Z,15.78
2018-06-09T10:32:45.160Z,17.10
2018-06-09T10:35:13.564Z,18.50
2018-06-09T10:37:41.930Z,16.50
2018-06-09T10:40:10.404Z,18.92
2018-06-09T10:42:38.758Z,15.70
2018-06-09T10:45:07.146Z,16.95
2018-06-09T10:47:35.546Z,17.27
2018-06-09T10:50:03.955Z,15.83
2018-06-09T10:52:32.416Z,16.77
2018-06-09T10:55:00.902Z,15.68
2018-06-09T10:57:29.314Z,16.82
2018-06-09T10:59:57.794Z,16.82
2018-06-09T11:02:26.307Z,16.12
2018-06-09T11:04:54.714Z,17.77
2018-06-09T11:07:23.092Z,18.00
2018-06-09T11:09:51.517Z,16.10
2018-06-09T11:12:19.916Z,16.80
2018-06-09T11:14:48.364Z,16.52
2018-06-09T11:17:16.776Z,17.95
2018-06-09T11:19:45.198Z,18.27
2018-06-09T11:22:13.585Z,19.05
2018-06-09T11:24:42.022Z,19.95
2018-06-09T11:27:10.492Z,18.87
2018-06-09T11:29:38.993Z,18.27
2018-06-09T11:32:07.090Z,18.10
2018-06-09T11:34:35.625Z,19.57
2018-06-09T11:37:04.075Z,19.02
2018-06-09T11:39:32.473Z,18.10
2018-06-09T11:42:00.858Z,20.23
2018-06-09T11:44:29.304Z,21.07
2018-06-09T11:46:57.768Z,20.05
2018-06-09T11:49:26.181Z,21.35
2018-06-09T11:51:54.557Z,19.42
2018-06-09T11:54:22.963Z,18.87
2018-06-09T11:56:51.416Z,19.90
2018-06-09T11:59:19.843Z,19.70
2018-06-09T12:01:48.398Z,19.45
2018-06-09T12:04:16.773Z,17.57
2018-06-09T12:06:45.316Z,17.87
2018-06-09T12:09:13.777Z,18.65
2018-06-09T12:11:42.246Z,19.15
2018-06-09T12:14:10.609Z,20.52
2018-06-09T12:16:39.048Z,16.27
2018-06-09T12:19:07.441Z,15.80
2018-06-09T12:21:35.870Z,13.45
2018-06-09T12:24:04.209Z,14.40
2018-06-09T12:26:32.668Z,14.28
2018-06-09T12:29:01.054Z,14.45
2018-06-09T12:31:29.706Z,12.85
2018-06-09T12:33:58.134Z,13.55
2018-06-09T12:36:26.574Z,13.78
2018-06-09T12:38:54.936Z,13.85
2018-06-09T12:41:23.472Z,12.78
2018-06-09T12:43:51.898Z,13.60
2018-06-09T12:46:20.324Z,13.88
2018-06-09T12:48:48.799Z,12.82
2018-06-09T12:51:17.170Z,13.62
2018-06-09T12:53:45.670Z,13.08
2018-06-09T12:56:14.100Z,12.45
2018-06-09T12:58:42.788Z,12.88
2018-06-09T13:01:11.214Z,12.35
2018-06-09T13:03:39.712Z,11.73
2018-06-09T13:06:08.117Z,11.78
2018-06-09T13:08:36.597Z,12.00
2018-06-09T13:11:05.316Z,11.83
2018-06-09T13:13:33.859Z,10.88
2018-06-09T13:16:02.369Z,11.15
2018-06-09T13:18:31.219Z,11.03
2018-06-09T13:20:59.720Z,10.95
2018-06-09T13:23:28.124Z,10.78
2018-06-09T13:25:56.618Z,10.80
2018-06-09T13:28:25.083Z,11.10
2018-06-09T13:30:53.532Z,12.23
2018-06-09T13:33:21.989Z,12.10
2018-06-09T13:35:50.513Z,12.85
2018-06-09T13:38:18.934Z,12.25
2018-06-09T13:40:47.431Z,12.00
2018-06-09T13:43:15.843Z,12.37
2018-06-09T13:45:44.256Z,13.15
2018-06-09T13:48:12.702Z,11.25
2018-06-09T13:50:41.184Z,9.48
2018-06-09T13:53:09.571Z,9.25
2018-06-09T13:55:37.979Z,7.20
2018-06-09T13:58:06.399Z,7.22
2018-06-09T14:00:34.885Z,7.08
2018-06-09T14:03:03.297Z,6.70
2018-06-09T14:05:31.753Z,6.58
2018-06-09T14:08:00.173Z,6.53
2018-06-09T14:10:28.634Z,6.60
2018-06-09T14:12:57.008Z,6.75
2018-06-09T14:15:25.096Z,6.60
2018-06-09T14:17:53.533Z,6.67
2018-06-09T14:20:21.953Z,6.62
2018-06-09T14:22:50.467Z,6.65
2018-06-09T14:25:18.901Z,6.12
2018-06-09T14:27:47.364Z,6.45
2018-06-09T14:30:15.792Z,9.13
2018-06-09T14:32:44.249Z,13.62
2018-06-09T14:35:12.612Z,11.75
2018-06-09T14:37:41.061Z,18.65
2018-06-09T14:40:09.511Z,14.87
2018-06-09T14:42:38.064Z,20.53
2018-06-09T14:45:06.198Z,31.27
2018-06-09T14:47:34.633Z,19.83
2018-06-09T14:50:03.076Z,17.43
2018-06-09T14:52:31.774Z,15.67
2018-06-09T14:55:00.232Z,18.30
2018-06-09T14:57:28.760Z,23.83
2018-06-09T14:59:56.823Z,15.53
2018-06-09T15:02:25.247Z,22.00
2018-06-09T15:04:53.719Z,25.07
2018-06-09T15:07:22.097Z,23.83
2018-06-09T15:09:50.530Z,25.87
2018-06-09T15:12:18.903Z,28.17
2018-06-09T15:14:47.428Z,16.87
2018-06-09T15:17:15.835Z,31.70
2018-06-09T15:19:44.460Z,38.10
2018-06-09T15:22:12.908Z,17.27
2018-06-09T15:24:41.341Z,19.67
2018-06-09T15:27:09.696Z,19.80
2018-06-09T15:29:37.859Z,21.80
2018-06-09T15:32:06.537Z,21.83
2018-06-09T15:34:34.997Z,19.40
2018-06-09T15:37:03.411Z,23.80
2018-06-09T15:39:32.141Z,21.57
2018-06-09T15:42:00.553Z,18.30
2018-06-09T15:44:28.983Z,16.07
2018-06-09T15:46:57.665Z,14.93
2018-06-09T15:49:25.838Z,14.63
2018-06-09T15:51:54.250Z,16.47
2018-06-09T15:54:22.656Z,19.23
2018-06-09T15:56:51.079Z,15.93
2018-06-09T15:59:19.489Z,17.70
2018-06-09T16:01:47.869Z,17.43
2018-06-09T16:04:16.331Z,18.03
2018-06-09T16:06:44.763Z,28.30
2018-06-09T16:09:13.794Z,28.53
2018-06-09T16:11:42.172Z,28.83
2018-06-09T16:14:10.945Z,34.07
2018-06-09T16:16:39.379Z,32.57
2018-06-09T16:19:07.798Z,21.27
2018-06-09T16:21:36.285Z,23.47
2018-06-09T16:24:04.682Z,25.80
2018-06-09T16:26:33.129Z,37.33
2018-06-09T16:29:01.512Z,40.00
2018-06-09T16:31:29.973Z,39.83
2018-06-09T16:33:58.332Z,36.10
2018-06-09T16:36:26.739Z,42.50
2018-06-09T16:38:55.161Z,24.93
2018-06-09T16:41:23.604Z,48.30
2018-06-09T16:43:52.018Z,41.00
2018-06-09T16:46:20.430Z,51.87
2018-06-09T16:48:48.850Z,51.23
2018-06-09T16:51:17.645Z,55.83
2018-06-09T16:53:46.128Z,54.27
2018-06-09T16:56:14.582Z,38.03
2018-06-09T16:58:42.952Z,52.77
2018-06-09T17:01:11.545Z,53.43
2018-06-09T17:03:39.914Z,30.50
2018-06-09T17:06:08.282Z,32.63
2018-06-09T17:08:36.688Z,26.67
2018-06-09T17:11:05.150Z,26.67
2018-06-09T17:13:33.620Z,31.73
2018-06-09T17:16:02.034Z,25.23
2018-06-09T17:18:31.234Z,37.90
2018-06-09T17:20:59.669Z,43.90
2018-06-09T17:23:28.157Z,34.33
2018-06-09T17:25:56.554Z,32.50
2018-06-09T17:28:24.970Z,38.53
2018-06-09T17:30:53.431Z,36.80
2018-06-09T17:33:21.838Z,41.70
2018-06-09T17:35:50.308Z,51.33
2018-06-09T17:38:18.398Z,59.60
2018-06-09T17:40:46.822Z,60.67
2018-06-09T17:43:15.277Z,61.87
2018-06-09T17:45:43.726Z,56.77
2018-06-09T17:48:11.845Z,60.10
2018-06-09T17:50:40.319Z,41.60
2018-06-09T17:53:08.771Z,45.47
2018-06-09T17:55:37.199Z,54.83
2018-06-09T17:58:05.713Z,71.37
2018-06-09T18:00:34.245Z,35.27
2018-06-09T18:03:02.705Z,46.20
2018-06-09T18:05:31.308Z,66.40
2018-06-09T18:07:59.787Z,39.10
2018-06-09T18:10:28.177Z,53.30
2018-06-09T18:12:56.681Z,62.93
2018-06-09T18:15:25.113Z,52.97
2018-06-09T18:17:53.484Z,76.30
2018-06-09T18:20:21.890Z,58.60
2018-06-09T18:22:50.386Z,46.67
2018-06-09T18:25:18.775Z,59.77
2018-06-09T18:27:47.207Z,64.17
2018-06-09T18:30:15.637Z,39.70
2018-06-09T18:32:43.998Z,48.70
2018-06-09T18:35:12.364Z,41.03
2018-06-09T18:37:40.832Z,29.67
2018-06-09T18:40:09.247Z,35.57
2018-06-09T18:42:37.680Z,37.73
2018-06-09T18:45:06.127Z,48.57
2018-06-09T18:47:34.502Z,46.27
2018-06-09T18:50:02.881Z,52.73
2018-06-09T18:52:31.291Z,60.50
2018-06-09T18:54:59.770Z,50.60
2018-06-09T18:57:27.865Z,45.63
2018-06-09T18:59:56.274Z,47.33
2018-06-09T19:02:24.669Z,50.80
2018-06-09T19:04:53.109Z,44.00
2018-06-09T19:07:21.468Z,42.67
2018-06-09T19:09:49.866Z,71.17
2018-06-09T19:12:18.268Z,39.87
2018-06-09T19:14:46.673Z,66.17
2018-06-09T19:17:15.056Z,51.10
2018-06-09T19:19:43.470Z,41.87
2018-06-09T19:22:11.943Z,42.87
2018-06-09T19:24:40.045Z,33.27
2018-06-09T19:27:08.484Z,52.00
2018-06-09T19:29:36.960Z,61.60
2018-06-09T19:32:05.362Z,45.97
2018-06-09T19:34:33.730Z,37.10
2018-06-09T19:37:01.876Z,41.80
2018-06-09T19:39:30.419Z,39.27
2018-06-09T19:41:58.838Z,48.23
2018-06-09T19:44:27.263Z,53.40
2018-06-09T19:46:55.580Z,53.33
2018-06-09T19:49:23.998Z,39.17
2018-06-09T19:51:52.459Z,62.33
2018-06-09T19:54:20.883Z,49.13
2018-06-09T19:56:49.335Z,41.13
2018-06-09T19:59:17.670Z,40.03
2018-06-09T20:01:46.160Z,40.13
2018-06-09T20:04:14.563Z,56.17
2018-06-09T20:06:43.006Z,52.90
2018-06-09T20:09:12.536Z,40.60
2018-06-09T20:11:40.979Z,38.37
2018-06-09T20:14:09.387Z,51.60
2018-06-09T20:16:38.611Z,67.03
2018-06-09T20:19:07.035Z,36.47
2018-06-09T20:21:35.517Z,44.83
2018-06-09T20:24:03.945Z,31.77
2018-06-09T20:26:32.350Z,33.70
2018-06-09T20:29:00.779Z,50.07
2018-06-09T20:31:29.217Z,46.43
2018-06-09T20:33:57.650Z,59.20
2018-06-09T20:36:26.141Z,53.73
2018-06-09T20:38:54.663Z,55.10
2018-06-09T20:41:23.161Z,47.97
2018-06-09T20:43:51.576Z,57.20
2018-06-09T20:46:19.979Z,39.27
2018-06-09T20:48:48.434Z,42.47
2018-06-09T20:51:16.904Z,51.77
2018-06-09T20:53:45.304Z,49.37
2018-06-09T20:56:13.733Z,34.40
2018-06-09T20:58:42.166Z,32.10
2018-06-09T21:01:10.595Z,38.60
2018-06-09T21:03:38.989Z,50.17
2018-06-09T21:06:07.442Z,67.50
2018-06-09T21:08:35.836Z,73.57
2018-06-09T21:11:04.280Z,47.90
2018-06-09T21:13:32.419Z,46.90
2018-06-09T21:16:01.744Z,53.27
2018-06-09T21:18:30.164Z,62.70
2018-06-09T21:20:58.644Z,35.53
2018-06-09T21:23:27.032Z,47.37
2018-06-09T21:25:55.455Z,54.37
2018-06-09T21:28:24.754Z,59.73
2018-06-09T21:31:00.813Z,60.70
2018-06-09T21:35:49.516Z,48.20
2018-06-09T21:38:18.632Z,61.13
2018-06-09T21:40:48.443Z,49.33
2018-06-09T21:43:22.443Z,55.13
2018-06-09T21:45:51.533Z,88.60
2018-06-09T21:48:20.654Z,53.90
2018-06-09T21:50:49.815Z,63.37
2018-06-09T21:53:18.005Z,55.83
2018-06-09T21:55:46.473Z,72.73
2018-06-09T21:58:14.914Z,66.07
2018-06-09T22:00:43.360Z,71.67
2018-06-09T22:03:11.788Z,89.40
2018-06-09T22:05:40.217Z,62.93
2018-06-09T22:08:08.671Z,52.83
2018-06-09T22:10:36.743Z,77.17
2018-06-09T22:13:04.936Z,78.33
2018-06-09T22:15:33.321Z,83.43
2018-06-09T22:18:01.803Z,65.87
2018-06-09T22:20:30.177Z,60.50
2018-06-09T22:22:58.872Z,98.07
2018-06-09T22:25:32.741Z,75.03
2018-06-09T22:28:01.123Z,59.73
2018-06-09T22:30:29.531Z,66.60
2018-06-09T22:32:57.892Z,59.57
2018-06-09T22:35:26.538Z,57.03
2018-06-09T22:37:54.920Z,89.93
2018-06-09T22:40:28.754Z,65.83
2018-06-09T22:42:57.142Z,75.27
2018-06-09T22:45:25.574Z,93.37
2018-06-09T22:47:53.968Z,79.43
2018-06-09T22:50:22.404Z,76.90
2018-06-09T22:52:50.835Z,63.07
2018-06-09T22:55:20.584Z,80.30
2018-06-09T22:57:49.079Z,66.00
2018-06-09T23:00:43.872Z,83.53
2018-06-09T23:03:13.303Z,82.70
2018-06-09T23:05:41.680Z,82.03
2018-06-09T23:08:10.107Z,75.37
2018-06-09T23:10:38.508Z,90.30
2018-06-09T23:13:07.002Z,111.70
2018-06-09T23:15:35.454Z,91.20
2018-06-09T23:18:03.896Z,96.23
2018-06-09T23:20:32.402Z,118.33
2018-06-09T23:23:00.833Z,108.47
2018-06-09T23:25:29.178Z,114.43
2018-06-09T23:27:57.520Z,78.70
2018-06-09T23:30:25.901Z,139.77
2018-06-09T23:32:54.300Z,87.50
2018-06-09T23:35:23.090Z,106.90
2018-06-09T23:37:52.070Z,120.37
2018-06-09T23:40:20.896Z,129.83
2018-06-09T23:42:49.266Z,98.43
2018-06-09T23:45:17.664Z,106.53
2018-06-09T23:47:46.268Z,93.87
2018-06-09T23:50:14.688Z,128.00
2018-06-09T23:52:43.088Z,75.00
2018-06-09T23:55:11.469Z,103.87
2018-06-09T23:57:40.199Z,96.10
